PWSweather.com
Personal Weather Stations
Station Observations
KMNGREYC2
Grey Cloud Island, Grey Cloud Island, MN 55071

Grey Cloud IslandGrey Cloud Island, MN 55071

Lat: 44.799333, Lon: -92.987851

Elevation: 700

Station Type: Davis VP2

www.jagielski.com/weather/conditions.htm

High Low Average
Temperature 13.4°F-10.3°C 1.0°F-17.2°C 7.5°F-13.6°C
Dew Point 7.5°F-13.6°C -4.8°F-20.4°C 3.0°F-16.1°C
Winds 13.0 mph 20.9 kmh Calm Calm 2.0 mph SW3.2 kmh SW
Wind Gusts 15.0 mph24.1 kmh 2.0 mph3.2 kmh 9.0 mph14.5 kmh
Humidity 87% 74% 81%
Pressure 30.01 in1016.3 mb 29.68 in1005.1 mb -
Precipitation 0.00 in0.0 mm - -
Hour Temp Dew Point Humidity Winds Wind Gusts Pressure Precip Precip Rate Daily Precip Total
12:00 AM 5.4°F-14.8°C 2.4°F-16.4°C 87% 6.0 mph E9.7 kmh E 8.0 mph12.9 kmh 29.70 in1005.8 mb 0.00 in0.0 mm 0.00 in0.0 mm 0.00 in0.0 mm
12:15 AM 5.4°F-14.8°C 2.4°F-16.4°C 87% 3.0 mph E4.8 kmh E 7.0 mph11.3 kmh 29.69 in1005.4 mb 0.00 in0.0 mm 0.00 in0.0 mm 0.00 in0.0 mm
12:30 AM 5.5°F-14.7°C 2.5°F-16.4°C 87% 1.0 mph NE1.6 kmh NE 8.0 mph12.9 kmh 29.69 in1005.4 mb 0.00 in0.0 mm 0.00 in0.0 mm 0.00 in0.0 mm
12:45 AM 5.5°F-14.7°C 2.5°F-16.4°C 87% Calm Calm 12.0 mph19.3 kmh 29.68 in1005.1 mb 0.00 in0.0 mm 0.00 in0.0 mm 0.00 in0.0 mm
01:00 AM 5.5°F-14.7°C 2.5°F-16.4°C 87% 5.0 mph ENE8.0 kmh ENE 12.0 mph19.3 kmh 29.68 in1005.1 mb 0.00 in0.0 mm 0.00 in0.0 mm 0.00 in0.0 mm
01:15 AM 5.5°F-14.7°C 2.5°F-16.4°C 87% 2.0 mph E3.2 kmh E 7.0 mph11.3 kmh 29.68 in1005.1 mb 0.00 in0.0 mm 0.00 in0.0 mm 0.00 in0.0 mm
01:30 AM 5.5°F-14.7°C 2.2°F-16.6°C 86% 5.0 mph NNE8.0 kmh NNE 7.0 mph11.3 kmh 29.68 in1005.1 mb 0.00 in0.0 mm 0.00 in0.0 mm 0.00 in0.0 mm
01:45 AM 5.5°F-14.7°C 2.5°F-16.4°C 87% 3.0 mph E4.8 kmh E 7.0 mph11.3 kmh 29.68 in1005.1 mb 0.00 in0.0 mm 0.00 in0.0 mm 0.00 in0.0 mm
02:00 AM 5.5°F-14.7°C 2.5°F-16.4°C 87% 3.0 mph NE4.8 kmh NE 8.0 mph12.9 kmh 29.68 in1005.1 mb 0.00 in0.0 mm 0.00 in0.0 mm 0.00 in0.0 mm
02:15 AM 5.5°F-14.7°C 2.5°F-16.4°C 87% Calm Calm 8.0 mph12.9 kmh 29.68 in1005.1 mb 0.00 in0.0 mm 0.00 in0.0 mm 0.00 in0.0 mm
02:30 AM 5.5°F-14.7°C 2.5°F-16.4°C 87% 2.0 mph ENE3.2 kmh ENE 8.0 mph12.9 kmh 29.68 in1005.1 mb 0.00 in0.0 mm 0.00 in0.0 mm 0.00 in0.0 mm
02:45 AM 5.4°F-14.8°C 2.4°F-16.4°C 87% Calm Calm 9.0 mph14.5 kmh 29.68 in1005.1 mb 0.00 in0.0 mm 0.00 in0.0 mm 0.00 in0.0 mm
03:00 AM 5.4°F-14.8°C 2.4°F-16.4°C 87% Calm Calm 9.0 mph14.5 kmh 29.68 in1005.1 mb 0.00 in0.0 mm 0.00 in0.0 mm 0.00 in0.0 mm
03:15 AM 5.3°F-14.8°C 2.3°F-16.5°C 87% 1.0 mph E1.6 kmh E 12.0 mph19.3 kmh 29.70 in1005.8 mb 0.00 in0.0 mm 0.00 in0.0 mm 0.00 in0.0 mm
03:30 AM 5.3°F-14.8°C 2.0°F-16.7°C 86% 2.0 mph E3.2 kmh E 12.0 mph19.3 kmh 29.70 in1005.8 mb 0.00 in0.0 mm 0.00 in0.0 mm 0.00 in0.0 mm
03:45 AM 5.2°F-14.9°C 1.9°F-16.7°C 86% 3.0 mph SE4.8 kmh SE 10.0 mph16.1 kmh 29.70 in1005.8 mb 0.00 in0.0 mm 0.00 in0.0 mm 0.00 in0.0 mm
04:00 AM 5.2°F-14.9°C 1.9°F-16.7°C 86% Calm Calm 10.0 mph16.1 kmh 29.70 in1005.8 mb 0.00 in0.0 mm 0.00 in0.0 mm 0.00 in0.0 mm
04:15 AM 5.1°F-14.9°C 1.8°F-16.8°C 86% 1.0 mph ENE1.6 kmh ENE 5.0 mph8.0 kmh 29.70 in1005.8 mb 0.00 in0.0 mm 0.00 in0.0 mm 0.00 in0.0 mm
04:30 AM 5.1°F-14.9°C 1.8°F-16.8°C 86% 1.0 mph ENE1.6 kmh ENE 9.0 mph14.5 kmh 29.70 in1005.8 mb 0.00 in0.0 mm 0.00 in0.0 mm 0.00 in0.0 mm
04:45 AM 5.0°F-15.0°C 1.7°F-16.8°C 86% 3.0 mph NE4.8 kmh NE 7.0 mph11.3 kmh 29.70 in1005.8 mb 0.00 in0.0 mm 0.00 in0.0 mm 0.00 in0.0 mm
05:00 AM 5.1°F-14.9°C 1.8°F-16.8°C 86% Calm Calm 7.0 mph11.3 kmh 29.71 in1006.1 mb 0.00 in0.0 mm 0.00 in0.0 mm 0.00 in0.0 mm
05:15 AM 5.0°F-15.0°C 1.7°F-16.8°C 86% Calm Calm 4.0 mph6.4 kmh 29.72 in1006.4 mb 0.00 in0.0 mm 0.00 in0.0 mm 0.00 in0.0 mm
05:30 AM 5.0°F-15.0°C 1.7°F-16.8°C 86% Calm Calm 5.0 mph8.0 kmh 29.72 in1006.4 mb 0.00 in0.0 mm 0.00 in0.0 mm 0.00 in0.0 mm
05:45 AM 4.9°F-15.1°C 1.6°F-16.9°C 86% 2.0 mph NE3.2 kmh NE 7.0 mph11.3 kmh 29.72 in1006.4 mb 0.00 in0.0 mm 0.00 in0.0 mm 0.00 in0.0 mm
06:00 AM 4.8°F-15.1°C 1.5°F-16.9°C 86% Calm Calm 7.0 mph11.3 kmh 29.74 in1007.1 mb 0.00 in0.0 mm 0.00 in0.0 mm 0.00 in0.0 mm
06:15 AM 4.8°F-15.1°C 1.5°F-16.9°C 86% 1.0 mph NE1.6 kmh NE 5.0 mph8.0 kmh 29.74 in1007.1 mb 0.00 in0.0 mm 0.00 in0.0 mm 0.00 in0.0 mm
06:30 AM 4.7°F-15.2°C 1.4°F-17.0°C 86% Calm Calm 5.0 mph8.0 kmh 29.75 in1007.5 mb 0.00 in0.0 mm 0.00 in0.0 mm 0.00 in0.0 mm
06:45 AM 4.6°F-15.2°C 1.6°F-16.9°C 87% 2.0 mph N3.2 kmh N 4.0 mph6.4 kmh 29.76 in1007.8 mb 0.00 in0.0 mm 0.00 in0.0 mm 0.00 in0.0 mm
07:00 AM 4.6°F-15.2°C 1.3°F-17.1°C 86% Calm Calm 4.0 mph6.4 kmh 29.77 in1008.1 mb 0.00 in0.0 mm 0.00 in0.0 mm 0.00 in0.0 mm
07:15 AM 4.6°F-15.2°C 1.3°F-17.1°C 86% Calm Calm 3.0 mph4.8 kmh 29.79 in1008.8 mb 0.00 in0.0 mm 0.00 in0.0 mm 0.00 in0.0 mm
07:30 AM 4.6°F-15.2°C 1.3°F-17.1°C 86% Calm Calm 5.0 mph8.0 kmh 29.80 in1009.1 mb 0.00 in0.0 mm 0.00 in0.0 mm 0.00 in0.0 mm
07:45 AM 4.6°F-15.2°C 1.3°F-17.1°C 86% Calm Calm 2.0 mph3.2 kmh 29.81 in1009.5 mb 0.00 in0.0 mm 0.00 in0.0 mm 0.00 in0.0 mm
08:00 AM 4.7°F-15.2°C 1.7°F-16.8°C 87% 1.0 mph N1.6 kmh N 7.0 mph11.3 kmh 29.81 in1009.5 mb 0.00 in0.0 mm 0.00 in0.0 mm 0.00 in0.0 mm
08:15 AM 4.8°F-15.1°C 1.8°F-16.8°C 87% Calm Calm 6.0 mph9.7 kmh 29.82 in1009.8 mb 0.00 in0.0 mm 0.00 in0.0 mm 0.00 in0.0 mm
08:30 AM 5.0°F-15.0°C 2.0°F-16.7°C 87% 2.0 mph N3.2 kmh N 7.0 mph11.3 kmh 29.84 in1010.5 mb 0.00 in0.0 mm 0.00 in0.0 mm 0.00 in0.0 mm
08:45 AM 5.2°F-14.9°C 2.2°F-16.6°C 87% Calm Calm 8.0 mph12.9 kmh 29.84 in1010.5 mb 0.00 in0.0 mm 0.00 in0.0 mm 0.00 in0.0 mm
09:00 AM 5.2°F-14.9°C 2.2°F-16.6°C 87% 1.0 mph N1.6 kmh N 8.0 mph12.9 kmh 29.85 in1010.8 mb 0.00 in0.0 mm 0.00 in0.0 mm 0.00 in0.0 mm
09:15 AM 5.3°F-14.8°C 2.0°F-16.7°C 86% Calm Calm 8.0 mph12.9 kmh 29.86 in1011.2 mb 0.00 in0.0 mm 0.00 in0.0 mm 0.00 in0.0 mm
09:30 AM 5.4°F-14.8°C 2.4°F-16.4°C 87% Calm Calm 8.0 mph12.9 kmh 29.87 in1011.5 mb 0.00 in0.0 mm 0.00 in0.0 mm 0.00 in0.0 mm
09:45 AM 5.7°F-14.6°C 2.4°F-16.4°C 86% 1.0 mph NNE1.6 kmh NNE 8.0 mph12.9 kmh 29.87 in1011.5 mb 0.00 in0.0 mm 0.00 in0.0 mm 0.00 in0.0 mm
10:00 AM 6.1°F-14.4°C 2.8°F-16.2°C 86% 3.0 mph NW4.8 kmh NW 8.0 mph12.9 kmh 29.87 in1011.5 mb 0.00 in0.0 mm 0.00 in0.0 mm 0.00 in0.0 mm
10:15 AM 6.7°F-14.1°C 3.4°F-15.9°C 86% 1.0 mph NNE1.6 kmh NNE 8.0 mph12.9 kmh 29.88 in1011.9 mb 0.00 in0.0 mm 0.00 in0.0 mm 0.00 in0.0 mm
10:30 AM 6.8°F-14.0°C 3.3°F-15.9°C 85% Calm Calm 8.0 mph12.9 kmh 29.88 in1011.9 mb 0.00 in0.0 mm 0.00 in0.0 mm 0.00 in0.0 mm
10:45 AM 7.1°F-13.8°C 3.6°F-15.8°C 85% 2.0 mph NW3.2 kmh NW 9.0 mph14.5 kmh 29.89 in1012.2 mb 0.00 in0.0 mm 0.00 in0.0 mm 0.00 in0.0 mm
11:00 AM 7.4°F-13.7°C 3.6°F-15.8°C 84% 2.0 mph NNW3.2 kmh NNW 12.0 mph19.3 kmh 29.90 in1012.5 mb 0.00 in0.0 mm 0.00 in0.0 mm 0.00 in0.0 mm
11:15 AM 7.8°F-13.4°C 4.0°F-15.6°C 84% 1.0 mph N1.6 kmh N 8.0 mph12.9 kmh 29.91 in1012.9 mb 0.00 in0.0 mm 0.00 in0.0 mm 0.00 in0.0 mm
11:30 AM 8.1°F-13.3°C 4.0°F-15.6°C 83% 6.0 mph NNW9.7 kmh NNW 8.0 mph12.9 kmh 29.91 in1012.9 mb 0.00 in0.0 mm 0.00 in0.0 mm 0.00 in0.0 mm
11:45 AM 8.5°F-13.1°C 4.4°F-15.3°C 83% 2.0 mph N3.2 kmh N 10.0 mph16.1 kmh 29.93 in1013.5 mb 0.00 in0.0 mm 0.00 in0.0 mm 0.00 in0.0 mm
12:00 PM 9.5°F-12.5°C 4.9°F-15.1°C 81% 3.0 mph NW4.8 kmh NW 10.0 mph16.1 kmh 29.94 in1013.9 mb 0.00 in0.0 mm 0.00 in0.0 mm 0.00 in0.0 mm
12:15 PM 10.0°F-12.2°C 4.8°F-15.1°C 79% 3.0 mph NW4.8 kmh NW 7.0 mph11.3 kmh 29.94 in1013.9 mb 0.00 in0.0 mm 0.00 in0.0 mm 0.00 in0.0 mm
12:30 PM 10.0°F-12.2°C 4.2°F-15.4°C 77% 1.0 mph NNW1.6 kmh NNW 7.0 mph11.3 kmh 29.95 in1014.2 mb 0.00 in0.0 mm 0.00 in0.0 mm 0.00 in0.0 mm
12:45 PM 10.9°F-11.7°C 5.1°F-14.9°C 77% 4.0 mph NW6.4 kmh NW 7.0 mph11.3 kmh 29.94 in1013.9 mb 0.00 in0.0 mm 0.00 in0.0 mm 0.00 in0.0 mm
01:00 PM 11.6°F-11.3°C 6.1°F-14.4°C 78% 1.0 mph NE1.6 kmh NE 8.0 mph12.9 kmh 29.94 in1013.9 mb 0.00 in0.0 mm 0.00 in0.0 mm 0.00 in0.0 mm
01:15 PM 11.8°F-11.2°C 6.0°F-14.4°C 77% 2.0 mph NW3.2 kmh NW 8.0 mph12.9 kmh 29.94 in1013.9 mb 0.00 in0.0 mm 0.00 in0.0 mm 0.00 in0.0 mm
01:30 PM 11.7°F-11.3°C 5.6°F-14.7°C 76% 3.0 mph NNW4.8 kmh NNW 8.0 mph12.9 kmh 29.93 in1013.5 mb 0.00 in0.0 mm 0.00 in0.0 mm 0.00 in0.0 mm
01:45 PM 12.0°F-11.1°C 5.9°F-14.5°C 76% 3.0 mph W4.8 kmh W 9.0 mph14.5 kmh 29.93 in1013.5 mb 0.00 in0.0 mm 0.00 in0.0 mm 0.00 in0.0 mm
02:00 PM 12.6°F-10.8°C 5.9°F-14.5°C 74% 3.0 mph N4.8 kmh N 9.0 mph14.5 kmh 29.94 in1013.9 mb 0.00 in0.0 mm 0.00 in0.0 mm 0.00 in0.0 mm
02:15 PM 13.1°F-10.5°C 7.0°F-13.9°C 76% 4.0 mph NW6.4 kmh NW 11.0 mph17.7 kmh 29.94 in1013.9 mb 0.00 in0.0 mm 0.00 in0.0 mm 0.00 in0.0 mm
02:30 PM 13.2°F-10.4°C 6.5°F-14.2°C 74% 1.0 mph NNW1.6 kmh NNW 11.0 mph17.7 kmh 29.94 in1013.9 mb 0.00 in0.0 mm 0.00 in0.0 mm 0.00 in0.0 mm
02:45 PM 13.2°F-10.4°C 6.8°F-14.0°C 75% 2.0 mph WNW3.2 kmh WNW 9.0 mph14.5 kmh 29.94 in1013.9 mb 0.00 in0.0 mm 0.00 in0.0 mm 0.00 in0.0 mm
03:00 PM 13.4°F-10.3°C 7.0°F-13.9°C 75% 4.0 mph NW6.4 kmh NW 9.0 mph14.5 kmh 29.94 in1013.9 mb 0.00 in0.0 mm 0.00 in0.0 mm 0.00 in0.0 mm
03:15 PM 13.4°F-10.3°C 6.7°F-14.1°C 74% 2.0 mph NNE3.2 kmh NNE 8.0 mph12.9 kmh 29.94 in1013.9 mb 0.00 in0.0 mm 0.00 in0.0 mm 0.00 in0.0 mm
03:30 PM 13.4°F-10.3°C 7.0°F-13.9°C 75% 5.0 mph N8.0 kmh N 8.0 mph12.9 kmh 29.94 in1013.9 mb 0.00 in0.0 mm 0.00 in0.0 mm 0.00 in0.0 mm
03:45 PM 13.4°F-10.3°C 7.3°F-13.7°C 76% 7.0 mph WNW11.3 kmh WNW 8.0 mph12.9 kmh 29.94 in1013.9 mb 0.00 in0.0 mm 0.00 in0.0 mm 0.00 in0.0 mm
04:00 PM 13.3°F-10.4°C 7.5°F-13.6°C 77% Calm Calm 9.0 mph14.5 kmh 29.94 in1013.9 mb 0.00 in0.0 mm 0.00 in0.0 mm 0.00 in0.0 mm
04:15 PM 13.3°F-10.4°C 7.5°F-13.6°C 77% 3.0 mph W4.8 kmh W 9.0 mph14.5 kmh 29.95 in1014.2 mb 0.00 in0.0 mm 0.00 in0.0 mm 0.00 in0.0 mm
04:30 PM 13.2°F-10.4°C 7.4°F-13.7°C 77% 2.0 mph WNW3.2 kmh WNW 9.0 mph14.5 kmh 29.95 in1014.2 mb 0.00 in0.0 mm 0.00 in0.0 mm 0.00 in0.0 mm
04:45 PM 13.1°F-10.5°C 7.3°F-13.7°C 77% Calm Calm 8.0 mph12.9 kmh 29.95 in1014.2 mb 0.00 in0.0 mm 0.00 in0.0 mm 0.00 in0.0 mm
05:00 PM 13.1°F-10.5°C 7.3°F-13.7°C 77% Calm Calm 11.0 mph17.7 kmh 29.95 in1014.2 mb 0.00 in0.0 mm 0.00 in0.0 mm 0.00 in0.0 mm
05:15 PM 13.2°F-10.4°C 7.4°F-13.7°C 77% Calm Calm 6.0 mph9.7 kmh 29.96 in1014.6 mb 0.00 in0.0 mm 0.00 in0.0 mm 0.00 in0.0 mm
05:30 PM 13.2°F-10.4°C 7.4°F-13.7°C 77% 3.0 mph WNW4.8 kmh WNW 7.0 mph11.3 kmh 29.95 in1014.2 mb 0.00 in0.0 mm 0.00 in0.0 mm 0.00 in0.0 mm
05:45 PM 13.3°F-10.4°C 7.5°F-13.6°C 77% 1.0 mph W1.6 kmh W 9.0 mph14.5 kmh 29.95 in1014.2 mb 0.00 in0.0 mm 0.00 in0.0 mm 0.00 in0.0 mm
06:00 PM 13.1°F-10.5°C 7.3°F-13.7°C 77% 2.0 mph WNW3.2 kmh WNW 10.0 mph16.1 kmh 29.97 in1014.9 mb 0.00 in0.0 mm 0.00 in0.0 mm 0.00 in0.0 mm
06:15 PM 12.7°F-10.7°C 6.9°F-13.9°C 77% 3.0 mph W4.8 kmh W 12.0 mph19.3 kmh 29.97 in1014.9 mb 0.00 in0.0 mm 0.00 in0.0 mm 0.00 in0.0 mm
06:30 PM 12.3°F-10.9°C 6.5°F-14.2°C 77% 3.0 mph NW4.8 kmh NW 12.0 mph19.3 kmh 29.97 in1014.9 mb 0.00 in0.0 mm 0.00 in0.0 mm 0.00 in0.0 mm
06:45 PM 11.8°F-11.2°C 6.3°F-14.3°C 78% 5.0 mph WNW8.0 kmh WNW 9.0 mph14.5 kmh 29.97 in1014.9 mb 0.00 in0.0 mm 0.00 in0.0 mm 0.00 in0.0 mm
07:00 PM 11.4°F-11.4°C 5.9°F-14.5°C 78% 4.0 mph W6.4 kmh W 12.0 mph19.3 kmh 29.98 in1015.2 mb 0.00 in0.0 mm 0.00 in0.0 mm 0.00 in0.0 mm
07:15 PM 11.0°F-11.7°C 5.8°F-14.6°C 79% 3.0 mph WSW4.8 kmh WSW 12.0 mph19.3 kmh 29.98 in1015.2 mb 0.00 in0.0 mm 0.00 in0.0 mm 0.00 in0.0 mm
07:30 PM 10.3°F-12.1°C 5.4°F-14.8°C 80% 13.0 mph W20.9 kmh W 15.0 mph24.1 kmh 29.98 in1015.2 mb 0.00 in0.0 mm 0.00 in0.0 mm 0.00 in0.0 mm
07:45 PM 9.5°F-12.5°C 4.6°F-15.2°C 80% 3.0 mph WNW4.8 kmh WNW 14.0 mph22.5 kmh 29.99 in1015.6 mb 0.00 in0.0 mm 0.00 in0.0 mm 0.00 in0.0 mm
08:00 PM 8.7°F-12.9°C 3.8°F-15.7°C 80% 8.0 mph W12.9 kmh W 14.0 mph22.5 kmh 30.00 in1015.9 mb 0.00 in0.0 mm 0.00 in0.0 mm 0.00 in0.0 mm
08:15 PM 8.1°F-13.3°C 3.5°F-15.8°C 81% 6.0 mph W9.7 kmh W 14.0 mph22.5 kmh 30.00 in1015.9 mb 0.00 in0.0 mm 0.00 in0.0 mm 0.00 in0.0 mm
08:30 PM 7.4°F-13.7°C 2.5°F-16.4°C 80% 5.0 mph WNW8.0 kmh WNW 14.0 mph22.5 kmh 30.00 in1015.9 mb 0.00 in0.0 mm 0.00 in0.0 mm 0.00 in0.0 mm
08:45 PM 6.7°F-14.1°C 1.9°F-16.7°C 80% 2.0 mph W3.2 kmh W 12.0 mph19.3 kmh 30.00 in1015.9 mb 0.00 in0.0 mm 0.00 in0.0 mm 0.00 in0.0 mm
09:00 PM 6.2°F-14.3°C 1.4°F-17.0°C 80% 7.0 mph W11.3 kmh W 14.0 mph22.5 kmh 30.00 in1015.9 mb 0.00 in0.0 mm 0.00 in0.0 mm 0.00 in0.0 mm
09:15 PM 5.4°F-14.8°C 0.6°F-17.4°C 80% 5.0 mph NW8.0 kmh NW 14.0 mph22.5 kmh 30.01 in1016.3 mb 0.00 in0.0 mm 0.00 in0.0 mm 0.00 in0.0 mm
09:30 PM 4.9°F-15.1°C -0.2°F-17.9°C 79% 6.0 mph WNW9.7 kmh WNW 14.0 mph22.5 kmh 30.01 in1016.3 mb 0.00 in0.0 mm 0.00 in0.0 mm 0.00 in0.0 mm
09:45 PM 4.4°F-15.3°C -0.7°F-18.2°C 79% 2.0 mph W3.2 kmh W 11.0 mph17.7 kmh 30.01 in1016.3 mb 0.00 in0.0 mm 0.00 in0.0 mm 0.00 in0.0 mm
10:00 PM 3.9°F-15.6°C -1.2°F-18.4°C 79% 1.0 mph W1.6 kmh W 12.0 mph19.3 kmh 30.00 in1015.9 mb 0.00 in0.0 mm 0.00 in0.0 mm 0.00 in0.0 mm
10:15 PM 3.6°F-15.8°C -1.7°F-18.7°C 78% 1.0 mph W1.6 kmh W 11.0 mph17.7 kmh 30.00 in1015.9 mb 0.00 in0.0 mm 0.00 in0.0 mm 0.00 in0.0 mm
10:30 PM 3.5°F-15.8°C -1.8°F-18.8°C 78% 3.0 mph W4.8 kmh W 11.0 mph17.7 kmh 30.00 in1015.9 mb 0.00 in0.0 mm 0.00 in0.0 mm 0.00 in0.0 mm
10:45 PM 3.5°F-15.8°C -1.8°F-18.8°C 78% Calm Calm 8.0 mph12.9 kmh 30.00 in1015.9 mb 0.00 in0.0 mm 0.00 in0.0 mm 0.00 in0.0 mm
11:00 PM 3.5°F-15.8°C -1.8°F-18.8°C 78% 2.0 mph NW3.2 kmh NW 9.0 mph14.5 kmh 30.00 in1015.9 mb 0.00 in0.0 mm 0.00 in0.0 mm 0.00 in0.0 mm
11:15 PM 3.3°F-15.9°C -2.3°F-19.1°C 77% 1.0 mph NW1.6 kmh NW 9.0 mph14.5 kmh 30.00 in1015.9 mb 0.00 in0.0 mm 0.00 in0.0 mm 0.00 in0.0 mm
11:30 PM 3.1°F-16.1°C -2.5°F-19.2°C 77% 4.0 mph NW6.4 kmh NW 9.0 mph14.5 kmh 29.99 in1015.6 mb 0.00 in0.0 mm 0.00 in0.0 mm 0.00 in0.0 mm
11:45 PM 2.7°F-16.3°C -2.9°F-19.4°C 77% Calm Calm 7.0 mph11.3 kmh 29.99 in1015.6 mb 0.00 in0.0 mm 0.00 in0.0 mm 0.00 in0.0 mm